Terminal Aerodrome Forecast
Issued by NWS Springfield, MO

Home | Current Version | Previous Version | Text Only | Print | Product List | Glossary On
Versions: 1 2 3 4 5 6 7 8 9 10 11 12 13 14 15 16 17 18 19
489
FTUS43 KSGF 300148 AAA
TAFSGF
TAF AMD
KSGF 300148Z 3002/3024 11016G24KT 4SM -RA BR VCTS BKN007 OVC015CB
      WS020/17045KT
      TEMPO 3002/3006 2SM TSRA BR
     FM300800 12016G24KT 5SM BR VCSH BKN008 OVC025
     FM301500 19012KT P6SM BKN015 OVC050
     FM301800 23011KT P6SM SCT030 PROB30 3018/3021 4SM TSRA
      BKN025CB=

USA.gov is the U.S. government's official web portal to all federal, state and local government web resources and services.